createdAt,value
2023-04-05T00:01:13.804Z,7.70
2023-04-05T00:03:48.716Z,7.27
2023-04-05T00:06:23.225Z,7.13
2023-04-05T00:08:56.845Z,7.50
2023-04-05T00:11:33.322Z,7.43
2023-04-05T00:14:07.447Z,8.03
2023-04-05T00:16:41.151Z,7.50
2023-04-05T00:19:15.337Z,7.23
2023-04-05T00:21:48.901Z,7.20
2023-04-05T00:24:22.232Z,7.33
2023-04-05T00:26:57.810Z,6.87
2023-04-05T00:29:31.360Z,6.90
2023-04-05T00:32:11.650Z,6.03
2023-04-05T00:34:45.277Z,5.97
2023-04-05T00:37:18.942Z,6.33
2023-04-05T00:39:52.649Z,5.93
2023-04-05T00:42:28.116Z,6.23
2023-04-05T00:45:01.273Z,6.20
2023-04-05T00:47:35.041Z,6.33
2023-04-05T00:50:09.888Z,6.23
2023-04-05T00:52:43.219Z,6.10
2023-04-05T00:55:17.359Z,6.10
2023-04-05T00:57:53.921Z,6.50
2023-04-05T01:00:28.307Z,6.90
2023-04-05T01:03:04.917Z,6.70
2023-04-05T01:05:44.222Z,7.00
2023-04-05T01:08:21.892Z,7.17
2023-04-05T01:10:59.381Z,5.93
2023-04-05T01:13:35.391Z,6.60
2023-04-05T01:16:09.702Z,6.07
2023-04-05T01:18:48.165Z,6.63
2023-04-05T01:21:48.887Z,6.00
2023-04-05T01:24:33.817Z,6.23
2023-04-05T01:27:11.583Z,6.43
2023-04-05T01:30:08.933Z,6.30
2023-04-05T01:32:58.199Z,6.70
2023-04-05T01:35:43.356Z,6.30
2023-04-05T01:38:21.913Z,5.97
2023-04-05T01:40:55.723Z,6.10
2023-04-05T01:43:30.199Z,6.77
2023-04-05T01:46:06.128Z,7.23
2023-04-05T01:48:39.454Z,6.63
2023-04-05T01:51:12.688Z,6.93
2023-04-05T01:53:45.785Z,7.23
2023-04-05T01:56:20.300Z,6.60
2023-04-05T01:58:53.617Z,6.87
2023-04-05T02:01:29.192Z,6.83
2023-04-05T02:04:03.427Z,7.40
2023-04-05T02:06:37.776Z,6.70
2023-04-05T02:09:11.235Z,7.03
2023-04-05T02:11:45.188Z,7.33
2023-04-05T02:14:18.894Z,7.60
2023-04-05T02:16:54.970Z,7.50
2023-04-05T02:19:28.544Z,7.27
2023-04-05T02:22:02.835Z,7.63
2023-04-05T02:24:35.736Z,8.50
2023-04-05T02:27:09.191Z,7.93
2023-04-05T02:29:42.122Z,8.53
2023-04-05T02:32:16.830Z,8.87
2023-04-05T02:34:51.627Z,8.67
2023-04-05T02:37:24.956Z,8.47
2023-04-05T02:40:02.858Z,8.70
2023-04-05T02:42:36.553Z,8.57
2023-04-05T02:45:13.683Z,9.30
2023-04-05T02:47:48.994Z,8.97
2023-04-05T02:50:22.560Z,8.53
2023-04-05T02:52:55.724Z,8.83
2023-04-05T02:55:30.774Z,8.63
2023-04-05T02:58:05.164Z,9.63
2023-04-05T03:00:56.603Z,8.60
2023-04-05T03:03:38.552Z,9.07
2023-04-05T03:06:14.597Z,9.23
2023-04-05T03:08:52.372Z,9.10
2023-04-05T03:11:32.884Z,9.50
2023-04-05T03:14:09.210Z,9.20
2023-04-05T03:16:52.039Z,9.20
2023-04-05T03:19:37.996Z,9.00
2023-04-05T03:22:21.239Z,9.20
2023-04-05T03:24:54.462Z,9.47
2023-04-05T03:27:28.419Z,9.20
2023-04-05T03:30:16.516Z,10.33
2023-04-05T03:32:58.701Z,10.40
2023-04-05T03:35:56.311Z,9.37
2023-04-05T03:38:51.980Z,9.57
2023-04-05T03:41:28.549Z,9.60
2023-04-05T03:44:03.309Z,10.43
2023-04-05T03:46:37.736Z,8.43
2023-04-05T03:49:13.364Z,9.00
2023-04-05T03:51:52.362Z,8.67
2023-04-05T03:54:29.997Z,7.40
2023-04-05T03:57:07.791Z,5.83
2023-04-05T03:59:41.626Z,5.83
2023-04-05T04:02:14.604Z,5.83
2023-04-05T04:04:49.097Z,5.70
2023-04-05T04:07:27.389Z,6.10
2023-04-05T04:10:00.466Z,6.20
2023-04-05T04:12:35.415Z,6.33
2023-04-05T04:15:09.144Z,5.80
2023-04-05T04:18:22.056Z,6.33
2023-04-05T04:21:26.258Z,6.80
2023-04-05T04:24:23.765Z,6.30
2023-04-05T04:27:19.545Z,6.70
2023-04-05T04:30:14.318Z,6.53
2023-04-05T04:33:08.725Z,7.53
2023-04-05T04:36:04.899Z,6.70
2023-04-05T04:39:03.761Z,6.37
2023-04-05T04:42:02.970Z,6.50
2023-04-05T04:45:18.952Z,6.30
2023-04-05T04:47:57.186Z,5.90
2023-04-05T04:50:52.001Z,5.77
2023-04-05T04:53:27.016Z,5.20
2023-04-05T04:56:00.577Z,5.40
2023-04-05T04:58:37.286Z,5.13
2023-04-05T05:01:14.571Z,6.30
2023-04-05T05:03:50.200Z,5.30
2023-04-05T05:06:29.546Z,5.00
2023-04-05T05:09:05.736Z,5.10
2023-04-05T05:11:49.010Z,4.90
2023-04-05T05:14:25.497Z,4.87
2023-04-05T05:17:01.504Z,4.60
2023-04-05T05:19:39.341Z,4.40
2023-04-05T05:22:14.114Z,3.90
2023-04-05T05:24:47.910Z,4.00
2023-04-05T05:27:24.611Z,4.03
2023-04-05T05:30:02.484Z,3.93
2023-04-05T05:32:36.791Z,3.80
2023-04-05T05:35:12.311Z,3.60
2023-04-05T05:37:48.877Z,4.10
2023-04-05T05:40:24.683Z,3.70
2023-04-05T05:42:58.267Z,3.70
2023-04-05T05:45:34.330Z,3.70
2023-04-05T05:48:09.005Z,3.80
2023-04-05T05:50:46.209Z,3.70
2023-04-05T05:53:19.589Z,4.00
2023-04-05T05:55:53.526Z,4.27
2023-04-05T05:58:27.852Z,3.90
2023-04-05T06:01:10.142Z,3.70
2023-04-05T06:03:44.362Z,4.47
2023-04-05T06:06:24.695Z,4.60
2023-04-05T06:08:58.797Z,4.80
2023-04-05T06:11:34.188Z,4.60
2023-04-05T06:14:10.271Z,4.47
2023-04-05T06:16:45.412Z,4.83
2023-04-05T06:19:20.693Z,5.00
2023-04-05T06:21:56.483Z,4.90
2023-04-05T06:24:33.352Z,4.80
2023-04-05T06:27:08.369Z,5.50
2023-04-05T06:29:45.138Z,5.63
2023-04-05T06:32:20.500Z,5.57
2023-04-05T06:34:54.780Z,5.67
2023-04-05T06:37:28.095Z,5.60
2023-04-05T06:40:02.188Z,5.90
2023-04-05T06:42:35.608Z,5.90
2023-04-05T06:45:14.339Z,5.67
2023-04-05T06:47:50.341Z,5.80
2023-04-05T06:50:24.992Z,5.43
2023-04-05T06:53:00.497Z,6.23
2023-04-05T06:55:34.162Z,6.67
2023-04-05T06:58:09.154Z,6.07
2023-04-05T07:00:42.984Z,6.83
2023-04-05T07:03:19.010Z,5.93
2023-04-05T07:06:00.638Z,7.00
2023-04-05T07:08:36.079Z,6.87
2023-04-05T07:11:09.699Z,7.27
2023-04-05T07:13:43.689Z,7.60
2023-04-05T07:16:17.406Z,7.73
2023-04-05T07:18:53.288Z,7.70
2023-04-05T07:21:30.671Z,8.17
2023-04-05T07:24:06.352Z,7.77
2023-04-05T07:26:42.131Z,6.67
2023-04-05T07:29:16.235Z,7.70
2023-04-05T07:31:49.715Z,7.63
2023-04-05T07:34:26.641Z,8.30
2023-04-05T07:37:00.407Z,9.67
2023-04-05T07:39:34.247Z,8.77
2023-04-05T07:42:11.855Z,8.70
2023-04-05T07:44:44.781Z,8.73
2023-04-05T07:47:17.863Z,9.20
2023-04-05T07:49:54.888Z,8.07
2023-04-05T07:52:30.656Z,8.20
2023-04-05T07:55:04.377Z,9.10
2023-04-05T07:57:39.002Z,8.37
2023-04-05T08:00:16.952Z,8.30
2023-04-05T08:02:49.939Z,8.63
2023-04-05T08:05:28.023Z,9.07
2023-04-05T08:08:02.105Z,8.23
2023-04-05T08:10:34.993Z,8.43
2023-04-05T08:13:09.746Z,8.00
2023-04-05T08:15:47.893Z,9.10
2023-04-05T08:18:22.697Z,8.57
2023-04-05T08:21:01.879Z,8.87
2023-04-05T08:23:39.004Z,7.93
2023-04-05T08:26:13.473Z,8.57
2023-04-05T08:28:47.886Z,8.60
2023-04-05T08:31:23.947Z,8.13
2023-04-05T08:33:58.670Z,8.10
2023-04-05T08:36:37.275Z,8.60
2023-04-05T08:39:10.179Z,8.90
2023-04-05T08:41:49.932Z,9.20
2023-04-05T08:44:26.212Z,8.80
2023-04-05T08:47:03.062Z,9.30
2023-04-05T08:49:38.786Z,9.10
2023-04-05T08:52:14.853Z,7.93
2023-04-05T08:54:50.735Z,9.03
2023-04-05T08:57:29.411Z,9.60
2023-04-05T09:00:07.830Z,8.40
2023-04-05T09:02:41.601Z,9.43
2023-04-05T09:05:19.575Z,9.93
2023-04-05T09:07:55.858Z,9.73
2023-04-05T09:10:31.215Z,9.50
2023-04-05T09:13:06.392Z,10.10
2023-04-05T09:15:45.620Z,10.83
2023-04-05T09:18:26.407Z,10.10
2023-04-05T09:21:08.376Z,9.27
2023-04-05T09:24:08.255Z,9.60
2023-04-05T09:26:43.083Z,10.63
2023-04-05T09:29:35.302Z,11.10
2023-04-05T09:32:13.900Z,11.90
2023-04-05T09:34:51.745Z,10.20
2023-04-05T09:37:34.432Z,11.47
2023-04-05T09:40:11.171Z,11.47
2023-04-05T09:42:49.178Z,11.30
2023-04-05T09:45:25.428Z,11.17
2023-04-05T09:48:03.382Z,11.10
2023-04-05T09:50:38.923Z,11.07
2023-04-05T09:53:17.512Z,12.23
2023-04-05T09:55:55.495Z,11.90
2023-04-05T09:58:35.895Z,11.63
2023-04-05T10:01:16.668Z,13.37
2023-04-05T10:03:53.611Z,13.07
2023-04-05T10:06:27.802Z,12.40
2023-04-05T10:09:04.268Z,11.43
2023-04-05T10:11:42.783Z,13.17
2023-04-05T10:14:16.566Z,13.63
2023-04-05T10:16:57.128Z,13.73
2023-04-05T10:19:35.915Z,13.40
2023-04-05T10:22:17.236Z,13.43
2023-04-05T10:24:59.285Z,13.53
2023-04-05T10:27:42.083Z,13.40
2023-04-05T10:30:22.576Z,12.70
2023-04-05T10:33:11.325Z,14.43
2023-04-05T10:35:54.390Z,15.10
2023-04-05T10:38:30.470Z,14.47
2023-04-05T10:41:12.220Z,14.80
2023-04-05T10:43:53.222Z,14.30
2023-04-05T10:46:28.446Z,13.60
2023-04-05T10:49:07.749Z,13.27
2023-04-05T10:51:46.214Z,13.67
2023-04-05T10:54:20.608Z,14.73
2023-04-05T10:56:59.148Z,14.20
2023-04-05T10:59:40.915Z,15.37
2023-04-05T11:02:14.745Z,14.40
2023-04-05T11:04:52.873Z,13.33
2023-04-05T11:07:27.595Z,13.93
2023-04-05T11:10:04.348Z,13.67
2023-04-05T11:13:21.936Z,12.03
2023-04-05T11:16:19.439Z,14.47
2023-04-05T11:18:56.022Z,12.97
2023-04-05T11:21:34.701Z,13.73
2023-04-05T11:24:13.537Z,14.57
2023-04-05T11:27:12.935Z,14.03
2023-04-05T11:29:53.065Z,14.17
2023-04-05T11:35:28.998Z,13.87
2023-04-05T11:38:13.780Z,16.10
2023-04-05T11:40:47.503Z,14.40
2023-04-05T11:43:23.882Z,11.50
2023-04-05T11:45:59.740Z,9.30
2023-04-05T11:48:36.349Z,11.47
2023-04-05T11:51:13.390Z,6.57
2023-04-05T11:53:56.336Z,8.83
2023-04-05T11:56:30.503Z,7.80
2023-04-05T11:59:04.511Z,9.20
2023-04-05T12:01:38.832Z,8.87
2023-04-05T12:04:30.216Z,9.20
2023-04-05T12:07:21.012Z,7.33
2023-04-05T12:10:13.207Z,7.53
2023-04-05T12:12:48.911Z,8.57
2023-04-05T12:15:21.875Z,7.23
2023-04-05T12:17:57.143Z,8.33
2023-04-05T12:20:33.707Z,8.73
2023-04-05T12:23:10.081Z,8.87
2023-04-05T12:25:44.163Z,9.20
2023-04-05T12:28:19.575Z,9.50
2023-04-05T12:30:56.437Z,10.30
2023-04-05T12:33:38.463Z,9.33
2023-04-05T12:36:18.887Z,9.67
2023-04-05T12:38:53.690Z,9.27
2023-04-05T12:41:34.059Z,9.20
2023-04-05T12:44:16.465Z,8.90
2023-04-05T12:46:51.993Z,8.10
2023-04-05T12:49:25.578Z,8.27
2023-04-05T12:52:10.348Z,8.27
2023-04-05T12:54:43.887Z,8.23
2023-04-05T12:57:19.897Z,7.17
2023-04-05T12:59:57.335Z,7.87
2023-04-05T13:02:31.163Z,7.10
2023-04-05T13:05:06.403Z,7.27
2023-04-05T13:07:46.630Z,7.00
2023-04-05T13:10:20.876Z,7.63
2023-04-05T13:12:58.445Z,7.57
2023-04-05T13:15:33.344Z,8.37
2023-04-05T13:18:08.659Z,7.13
2023-04-05T13:20:55.922Z,7.17
2023-04-05T13:23:45.465Z,7.50
2023-04-05T13:26:19.199Z,7.10
2023-04-05T13:28:53.532Z,6.23
2023-04-05T13:31:32.456Z,6.00
2023-04-05T13:34:06.242Z,5.37
2023-04-05T13:36:39.597Z,4.93
2023-04-05T13:39:14.789Z,5.30
2023-04-05T13:41:50.986Z,4.87
2023-04-05T13:44:24.921Z,4.50
2023-04-05T13:47:02.709Z,4.20
2023-04-05T13:49:36.187Z,4.37
2023-04-05T13:52:09.756Z,4.57
2023-04-05T13:55:02.250Z,5.47
2023-04-05T13:57:43.453Z,5.00
2023-04-05T14:00:34.925Z,5.43
2023-04-05T14:03:09.205Z,4.87
2023-04-05T14:05:43.342Z,5.30
2023-04-05T14:08:17.568Z,4.90
2023-04-05T14:10:55.243Z,4.70
2023-04-05T14:13:31.145Z,4.60
2023-04-05T14:16:05.653Z,4.97
2023-04-05T14:18:41.653Z,4.50
2023-04-05T14:21:21.179Z,4.50
2023-04-05T14:23:58.776Z,4.67
2023-04-05T14:26:47.660Z,5.63
2023-04-05T14:29:25.322Z,5.93
2023-04-05T14:32:00.608Z,5.87
2023-04-05T14:34:35.370Z,4.93
2023-04-05T14:37:18.273Z,6.07
2023-04-05T14:39:53.349Z,5.50
2023-04-05T14:42:45.063Z,5.43
2023-04-05T14:48:27.440Z,5.57
2023-04-05T14:51:04.606Z,6.20
2023-04-05T14:53:42.057Z,6.07
2023-04-05T14:56:19.913Z,5.63
2023-04-05T14:58:55.073Z,5.97
2023-04-05T15:01:28.650Z,6.50
2023-04-05T15:04:08.134Z,5.80
2023-04-05T15:06:45.567Z,6.20
2023-04-05T15:09:21.168Z,5.77
2023-04-05T15:14:49.909Z,5.97
2023-04-05T15:17:25.130Z,5.53
2023-04-05T15:19:58.625Z,5.83
2023-04-05T15:22:33.525Z,6.50
2023-04-05T15:25:08.579Z,5.07
2023-04-05T15:27:43.979Z,6.00
2023-04-05T15:30:22.014Z,6.00
2023-04-05T15:32:58.088Z,6.27
2023-04-05T15:35:35.019Z,6.43
2023-04-05T15:38:08.439Z,5.40
2023-04-05T15:40:42.173Z,5.50
2023-04-05T15:43:15.766Z,5.40
2023-04-05T15:45:52.862Z,5.10
2023-04-05T15:48:27.708Z,4.93
2023-04-05T15:51:01.433Z,5.03
2023-04-05T15:53:34.749Z,4.77
2023-04-05T15:56:07.953Z,4.13
2023-04-05T15:58:41.743Z,5.00
2023-04-05T16:01:20.280Z,4.47
2023-04-05T16:03:57.064Z,4.17
2023-04-05T16:06:31.343Z,4.33
2023-04-05T16:09:05.455Z,3.93
2023-04-05T16:11:38.566Z,4.07
2023-04-05T16:14:12.201Z,3.77
2023-04-05T16:16:53.613Z,4.67
2023-04-05T16:19:28.154Z,4.20
2023-04-05T16:22:05.508Z,4.17
2023-04-05T16:24:40.846Z,3.90
2023-04-05T16:27:14.784Z,4.30
2023-04-05T16:29:48.148Z,3.90
2023-04-05T16:32:24.315Z,3.70
2023-04-05T16:34:57.651Z,4.80
2023-04-05T16:37:33.721Z,3.60
2023-04-05T16:40:09.420Z,3.80
2023-04-05T16:42:43.288Z,4.40
2023-04-05T16:45:17.264Z,4.00
2023-04-05T16:47:53.278Z,4.50
2023-04-05T16:50:27.195Z,4.10
2023-04-05T16:53:01.834Z,4.37
2023-04-05T16:55:34.822Z,3.83
2023-04-05T16:58:08.152Z,3.90
2023-04-05T17:00:42.576Z,4.40
2023-04-05T17:03:18.414Z,4.50
2023-04-05T17:05:52.642Z,3.83
2023-04-05T17:08:26.498Z,4.20
2023-04-05T17:11:01.286Z,4.43
2023-04-05T17:13:35.017Z,3.80
2023-04-05T17:16:08.759Z,4.10
2023-04-05T17:18:43.919Z,4.13
2023-04-05T17:21:18.734Z,4.20
2023-04-05T17:23:52.240Z,4.43
2023-04-05T17:26:26.599Z,4.90
2023-04-05T17:29:00.416Z,4.67
2023-04-05T17:31:34.822Z,4.50
2023-04-05T17:34:10.113Z,4.60
2023-04-05T17:36:43.865Z,4.80
2023-04-05T17:39:17.638Z,4.80
2023-04-05T17:41:52.483Z,4.67
2023-04-05T17:44:26.322Z,4.17
2023-04-05T17:47:08.616Z,5.00
2023-04-05T17:49:45.331Z,4.27
2023-04-05T17:52:18.355Z,4.47
2023-04-05T17:54:52.763Z,5.17
2023-04-05T17:57:26.082Z,4.70
2023-04-05T18:00:00.786Z,4.80
2023-04-05T18:02:38.507Z,4.87
2023-04-05T18:05:14.456Z,4.97
2023-04-05T18:07:47.866Z,4.37
2023-04-05T18:10:21.854Z,4.60
2023-04-05T18:12:54.861Z,5.30
2023-04-05T18:15:28.015Z,5.43
2023-04-05T18:18:00.972Z,4.93
2023-04-05T18:20:36.060Z,4.80
2023-04-05T18:23:12.240Z,5.10
2023-04-05T18:25:45.740Z,5.30
2023-04-05T18:28:22.678Z,5.40
2023-04-05T18:31:02.496Z,4.70
2023-04-05T18:33:36.145Z,5.27
2023-04-05T18:36:11.621Z,6.50
2023-04-05T18:38:45.299Z,4.83
2023-04-05T18:41:18.820Z,6.30
2023-04-05T18:43:54.627Z,5.30
2023-04-05T18:46:28.925Z,5.83
2023-04-05T18:49:02.573Z,5.77
2023-04-05T18:51:37.926Z,5.50
2023-04-05T18:54:10.992Z,5.30
2023-04-05T18:56:43.914Z,6.00
2023-04-05T18:59:17.809Z,5.27
2023-04-05T19:01:51.290Z,4.83
2023-04-05T19:04:25.069Z,6.17
2023-04-05T19:07:01.030Z,6.00
2023-04-05T19:09:34.446Z,5.60
2023-04-05T19:12:08.158Z,6.30
2023-04-05T19:14:41.118Z,5.07
2023-04-05T19:17:14.664Z,4.73
2023-04-05T19:19:47.541Z,5.17
2023-04-05T19:22:22.384Z,5.53
2023-04-05T19:24:55.887Z,5.47
2023-04-05T19:27:31.941Z,5.23
2023-04-05T19:30:06.733Z,5.00
2023-04-05T19:32:40.533Z,5.30
2023-04-05T19:35:13.930Z,6.03
2023-04-05T19:37:48.633Z,6.20
2023-04-05T19:40:22.500Z,6.43
2023-04-05T19:42:57.914Z,5.30
2023-04-05T19:45:33.106Z,4.93
2023-04-05T19:48:11.697Z,5.80
2023-04-05T19:50:56.409Z,6.23
2023-04-05T19:53:45.337Z,5.53
2023-04-05T19:56:21.276Z,6.00
2023-04-05T19:58:58.238Z,5.43
2023-04-05T20:01:42.352Z,5.47
2023-04-05T20:04:17.160Z,5.47
2023-04-05T20:06:54.532Z,6.53
2023-04-05T20:09:32.193Z,5.93
2023-04-05T20:12:07.173Z,6.40
2023-04-05T20:14:46.894Z,6.97
2023-04-05T20:17:20.436Z,7.30
2023-04-05T20:20:02.001Z,7.00
2023-04-05T20:22:37.408Z,9.13
2023-04-05T20:25:31.400Z,7.07
2023-04-05T20:28:05.450Z,5.00
2023-04-05T20:30:39.310Z,5.20
2023-04-05T20:33:35.281Z,6.17
2023-04-05T20:36:12.038Z,5.70
2023-04-05T20:38:45.959Z,6.30
2023-04-05T20:41:23.487Z,6.20
2023-04-05T20:43:57.630Z,5.93
2023-04-05T20:46:31.503Z,4.83
2023-04-05T20:49:05.545Z,6.00
2023-04-05T20:51:41.929Z,6.20
2023-04-05T20:54:16.014Z,5.63
2023-04-05T20:56:50.848Z,6.10
2023-04-05T20:59:23.748Z,5.33
2023-04-05T21:01:56.705Z,5.73
2023-04-05T21:04:30.244Z,5.73
2023-04-05T21:07:03.626Z,5.80
2023-04-05T21:09:37.548Z,6.33
2023-04-05T21:12:13.911Z,5.43
2023-04-05T21:14:46.848Z,5.70
2023-04-05T21:17:20.056Z,5.80
2023-04-05T21:19:53.265Z,5.03
2023-04-05T21:22:26.560Z,5.93
2023-04-05T21:24:59.985Z,6.30
2023-04-05T21:27:35.507Z,5.57
2023-04-05T21:30:09.431Z,5.20
2023-04-05T21:32:43.137Z,6.03
2023-04-05T21:35:16.108Z,5.20
2023-04-05T21:37:49.280Z,5.70
2023-04-05T21:40:22.858Z,5.77
2023-04-05T21:42:58.524Z,5.93
2023-04-05T21:45:31.928Z,6.17
2023-04-05T21:48:05.247Z,5.83
2023-04-05T21:50:38.926Z,5.60
2023-04-05T21:53:12.759Z,6.23
2023-04-05T21:55:46.144Z,5.87
2023-04-05T21:58:20.823Z,5.70
2023-04-05T22:00:53.955Z,5.70
2023-04-05T22:03:27.024Z,6.07
2023-04-05T22:06:00.399Z,5.83
2023-04-05T22:08:35.452Z,6.30
2023-04-05T22:11:09.241Z,6.13
2023-04-05T22:13:46.278Z,5.63
2023-04-05T22:16:19.492Z,5.97
2023-04-05T22:18:52.482Z,6.47
2023-04-05T22:21:25.659Z,5.17
2023-04-05T22:23:58.854Z,5.00
2023-04-05T22:26:34.516Z,5.93
2023-04-05T22:29:10.214Z,6.47
2023-04-05T22:31:44.116Z,5.03
2023-04-05T22:34:17.562Z,5.77
2023-04-05T22:36:51.005Z,6.10
2023-04-05T22:39:24.542Z,5.53
2023-04-05T22:41:57.742Z,5.80
2023-04-05T22:44:33.397Z,6.17
2023-04-05T22:47:06.845Z,6.13
2023-04-05T22:49:40.546Z,6.07
2023-04-05T22:52:13.900Z,6.33
2023-04-05T22:54:47.283Z,6.57
2023-04-05T22:57:20.493Z,6.10
2023-04-05T22:59:55.880Z,5.17
2023-04-05T23:02:30.629Z,5.57
2023-04-05T23:05:03.907Z,5.87
2023-04-05T23:07:37.329Z,6.53
2023-04-05T23:10:11.156Z,5.97
2023-04-05T23:12:44.578Z,6.83
2023-04-05T23:15:19.906Z,5.97
2023-04-05T23:17:53.541Z,6.30
2023-04-05T23:20:26.964Z,6.23
2023-04-05T23:23:00.479Z,6.33
2023-04-05T23:25:33.871Z,6.43
2023-04-05T23:28:07.373Z,6.23
2023-04-05T23:30:42.704Z,5.83
2023-04-05T23:33:16.793Z,6.13
2023-04-05T23:35:50.590Z,6.73
2023-04-05T23:38:23.978Z,6.30
2023-04-05T23:40:57.361Z,6.70
2023-04-05T23:43:30.519Z,6.77
2023-04-05T23:46:06.298Z,6.27
2023-04-05T23:48:40.447Z,6.70
2023-04-05T23:51:14.291Z,6.73
2023-04-05T23:53:47.963Z,7.33
2023-04-05T23:56:21.453Z,6.67
2023-04-05T23:58:54.468Z,6.63
